createdAt,value
2018-01-29T00:00:00.845Z,16.40
2018-01-29T00:02:27.980Z,16.40
2018-01-29T00:04:55.319Z,16.40
2018-01-29T00:07:23.292Z,16.50
2018-01-29T00:09:51.260Z,16.40
2018-01-29T00:12:19.156Z,16.40
2018-01-29T00:14:46.392Z,16.40
2018-01-29T00:17:13.641Z,16.40
2018-01-29T00:19:40.772Z,16.40
2018-01-29T00:22:08.760Z,16.40
2018-01-29T00:24:35.897Z,16.40
2018-01-29T00:27:03.881Z,16.40
2018-01-29T00:29:31.778Z,16.40
2018-01-29T00:31:58.912Z,16.40
2018-01-29T00:34:26.148Z,16.40
2018-01-29T00:36:54.050Z,16.40
2018-01-29T00:39:21.273Z,16.40
2018-01-29T00:41:48.409Z,16.30
2018-01-29T00:44:16.397Z,16.30
2018-01-29T00:46:43.566Z,16.30
2018-01-29T00:49:10.696Z,16.40
2018-01-29T00:51:38.590Z,16.50
2018-01-29T00:54:05.816Z,16.50
2018-01-29T00:56:33.711Z,16.70
2018-01-29T00:59:00.835Z,16.70
2018-01-29T01:01:28.735Z,16.80
2018-01-29T01:03:55.868Z,16.80
2018-01-29T01:06:23.004Z,16.80
2018-01-29T01:08:50.908Z,16.70
2018-01-29T01:11:18.050Z,16.70
2018-01-29T01:13:45.181Z,16.70
2018-01-29T01:16:12.424Z,16.70
2018-01-29T01:18:40.401Z,16.60
2018-01-29T01:21:07.548Z,16.60
2018-01-29T01:23:35.525Z,16.60
2018-01-29T01:26:02.665Z,16.50
2018-01-29T01:28:30.644Z,16.60
2018-01-29T01:30:57.780Z,16.60
2018-01-29T01:33:25.676Z,16.60
2018-01-29T01:35:52.844Z,16.60
2018-01-29T01:38:19.972Z,16.60
2018-01-29T01:40:47.216Z,16.60
2018-01-29T01:43:14.348Z,16.50
2018-01-29T01:45:42.240Z,16.50
2018-01-29T01:48:09.484Z,16.50
2018-01-29T01:50:37.381Z,16.60
2018-01-29T01:53:04.508Z,16.50
2018-01-29T01:55:31.656Z,16.50
2018-01-29T01:57:58.804Z,16.50
2018-01-29T02:00:26.696Z,16.50
2018-01-29T02:02:54.596Z,16.50
2018-01-29T02:05:21.884Z,16.60
2018-01-29T02:07:50.560Z,16.50
2018-01-29T02:10:17.688Z,16.50
2018-01-29T02:12:44.816Z,16.50
2018-01-29T02:15:12.768Z,16.50
2018-01-29T02:17:39.897Z,16.50
2018-01-29T02:20:07.824Z,16.50
2018-01-29T02:22:35.912Z,16.60
2018-01-29T02:25:03.052Z,16.50
2018-01-29T02:27:30.249Z,16.50
2018-01-29T02:29:58.144Z,16.50
2018-01-29T02:32:26.169Z,16.50
2018-01-29T02:34:54.105Z,16.40
2018-01-29T02:37:22.176Z,16.50
2018-01-29T02:39:49.306Z,16.40
2018-01-29T02:42:16.438Z,16.40
2018-01-29T02:44:43.689Z,16.50
2018-01-29T02:47:10.816Z,16.50
2018-01-29T02:49:38.755Z,16.50
2018-01-29T02:52:05.885Z,16.50
2018-01-29T02:54:33.016Z,16.50
2018-01-29T02:57:00.144Z,16.50
2018-01-29T02:59:28.973Z,16.40
2018-01-29T03:01:56.811Z,16.40
2018-01-29T03:04:23.964Z,16.40
2018-01-29T03:06:51.860Z,16.60
2018-01-29T03:09:19.114Z,16.60
2018-01-29T03:11:46.240Z,16.70
2018-01-29T03:14:13.492Z,16.80
2018-01-29T03:16:40.623Z,16.80
2018-01-29T03:19:08.516Z,16.80
2018-01-29T03:21:35.764Z,16.80
2018-01-29T03:24:02.916Z,16.80
2018-01-29T03:26:30.087Z,16.70
2018-01-29T03:28:58.117Z,16.80
2018-01-29T03:31:26.109Z,16.70
2018-01-29T03:33:53.243Z,16.70
2018-01-29T03:36:21.139Z,16.70
2018-01-29T03:38:48.276Z,16.70
2018-01-29T03:41:16.244Z,16.70
2018-01-29T03:43:44.143Z,16.80
2018-01-29T03:46:11.269Z,16.80
2018-01-29T03:48:38.443Z,16.70
2018-01-29T03:51:05.667Z,16.70
2018-01-29T03:53:33.608Z,16.70
2018-01-29T03:56:00.788Z,16.60
2018-01-29T03:58:28.684Z,16.60
2018-01-29T04:00:55.819Z,16.60
2018-01-29T04:03:22.944Z,16.60
2018-01-29T04:05:50.836Z,16.60
2018-01-29T04:08:17.976Z,16.60
2018-01-29T04:10:45.948Z,16.70
2018-01-29T04:13:13.916Z,16.60
2018-01-29T04:15:41.854Z,16.60
2018-01-29T04:18:08.984Z,16.60
2018-01-29T04:20:36.116Z,16.60
2018-01-29T04:23:04.048Z,16.60
2018-01-29T04:25:31.944Z,16.60
2018-01-29T04:27:59.184Z,16.60
2018-01-29T04:30:26.328Z,16.60
2018-01-29T04:32:54.224Z,16.60
2018-01-29T04:35:21.352Z,16.60
2018-01-29T04:37:48.676Z,16.70
2018-01-29T04:40:15.804Z,16.60
2018-01-29T04:42:43.956Z,16.60
2018-01-29T04:45:11.087Z,16.60
2018-01-29T04:47:38.333Z,16.60
2018-01-29T04:50:06.228Z,16.60
2018-01-29T04:52:33.360Z,16.60
2018-01-29T04:55:00.606Z,16.60
2018-01-29T04:57:27.778Z,16.60
2018-01-29T04:59:55.040Z,16.60
2018-01-29T05:02:22.170Z,16.60
2018-01-29T05:04:49.411Z,16.60
2018-01-29T05:07:17.303Z,16.50
2018-01-29T05:09:44.442Z,16.50
2018-01-29T05:12:11.584Z,16.50
2018-01-29T05:14:39.552Z,16.50
2018-01-29T05:17:08.385Z,16.50
2018-01-29T05:19:35.519Z,16.50
2018-01-29T05:22:02.752Z,16.60
2018-01-29T05:24:29.880Z,16.70
2018-01-29T05:26:57.864Z,16.90
2018-01-29T05:29:25.839Z,16.90
2018-01-29T05:31:53.768Z,16.80
2018-01-29T05:34:20.899Z,16.80
2018-01-29T05:36:59.883Z,16.90
2018-01-29T05:39:27.784Z,16.80
2018-01-29T05:41:54.913Z,16.80
2018-01-29T05:44:22.052Z,16.80
2018-01-29T05:46:50.024Z,16.70
2018-01-29T05:49:17.921Z,16.70
2018-01-29T05:51:45.056Z,16.70
2018-01-29T05:54:12.218Z,16.70
2018-01-29T05:56:39.352Z,16.70
2018-01-29T05:59:06.484Z,16.70
2018-01-29T06:01:34.380Z,16.70
2018-01-29T06:04:01.516Z,16.70
2018-01-29T06:06:30.329Z,16.70
2018-01-29T06:08:58.424Z,16.70
2018-01-29T06:11:25.558Z,16.70
2018-01-29T06:13:53.604Z,16.70
2018-01-29T06:16:21.649Z,16.70
2018-01-29T06:18:49.568Z,16.60
2018-01-29T06:21:16.705Z,16.60
2018-01-29T06:23:43.840Z,16.70
2018-01-29T06:26:11.808Z,16.70
2018-01-29T06:28:39.708Z,16.70
2018-01-29T06:31:06.841Z,16.70
2018-01-29T06:33:33.972Z,16.70
2018-01-29T06:36:01.161Z,16.70
2018-01-29T06:38:28.388Z,16.60
2018-01-29T06:40:56.372Z,16.70
2018-01-29T06:43:23.608Z,16.70
2018-01-29T06:45:51.580Z,16.60
2018-01-29T06:48:19.548Z,16.80
2018-01-29T06:50:47.520Z,16.90
2018-01-29T06:53:14.740Z,16.90
2018-01-29T06:55:41.925Z,17.00
2018-01-29T06:58:09.901Z,17.10
2018-01-29T07:00:37.033Z,17.10
2018-01-29T07:03:04.933Z,17.10
2018-01-29T07:05:32.099Z,17.10
2018-01-29T07:07:59.323Z,17.10
2018-01-29T07:10:26.476Z,17.00
2018-01-29T07:12:53.618Z,17.00
2018-01-29T07:15:21.608Z,16.90
2018-01-29T07:17:48.740Z,16.90
2018-01-29T07:20:16.636Z,16.90
2018-01-29T07:22:43.865Z,16.90
2018-01-29T07:25:12.679Z,16.90
2018-01-29T07:27:39.811Z,16.90
2018-01-29T07:30:06.975Z,16.80
2018-01-29T07:32:34.108Z,16.80
2018-01-29T07:35:02.118Z,16.80
2018-01-29T07:37:29.258Z,16.80
2018-01-29T07:39:56.404Z,16.80
2018-01-29T07:42:23.536Z,16.70
2018-01-29T07:44:50.677Z,16.70
2018-01-29T07:47:18.576Z,16.80
2018-01-29T07:49:45.708Z,16.80
2018-01-29T07:52:12.849Z,16.80
2018-01-29T07:54:40.748Z,16.70
2018-01-29T07:57:07.920Z,16.70
2018-01-29T07:59:35.048Z,16.70
2018-01-29T08:02:02.190Z,16.70
2018-01-29T08:04:29.325Z,16.70
2018-01-29T08:06:56.460Z,16.70
2018-01-29T08:09:24.369Z,16.70
2018-01-29T08:11:51.503Z,16.70
2018-01-29T08:14:18.641Z,16.70
2018-01-29T08:16:45.829Z,16.70
2018-01-29T08:19:12.977Z,16.70
2018-01-29T08:21:40.127Z,16.60
2018-01-29T08:24:07.264Z,16.60
2018-01-29T08:26:34.396Z,16.60
2018-01-29T08:29:01.530Z,16.70
2018-01-29T08:31:30.217Z,16.70
2018-01-29T08:33:58.196Z,16.70
2018-01-29T08:36:26.121Z,16.70
2018-01-29T08:38:54.163Z,16.70
2018-01-29T08:41:22.880Z,16.90
2018-01-29T08:43:50.016Z,16.90
2018-01-29T08:46:17.159Z,17.00
2018-01-29T08:48:45.104Z,17.10
2018-01-29T08:51:12.237Z,17.10
2018-01-29T08:53:39.368Z,17.10
2018-01-29T08:56:06.501Z,17.00
2018-01-29T08:58:33.632Z,17.00
2018-01-29T09:01:01.577Z,16.90
2018-01-29T09:03:28.732Z,16.90
2018-01-29T09:05:56.770Z,16.90
2018-01-29T09:08:23.950Z,16.80
2018-01-29T09:10:51.089Z,16.90
2018-01-29T09:13:18.225Z,16.90
2018-01-29T09:15:45.360Z,16.90
2018-01-29T09:18:12.536Z,16.90
2018-01-29T09:20:39.670Z,16.80
2018-01-29T09:23:06.926Z,16.80
2018-01-29T09:25:34.069Z,16.80
2018-01-29T09:28:01.205Z,16.70
2018-01-29T09:30:28.341Z,16.70
2018-01-29T09:32:55.477Z,16.70
2018-01-29T09:35:24.314Z,16.70
2018-01-29T09:37:51.452Z,16.70
2018-01-29T09:40:18.580Z,16.70
2018-01-29T09:42:46.481Z,16.70
2018-01-29T09:45:13.612Z,16.70
2018-01-29T09:47:40.748Z,16.70
2018-01-29T09:50:08.691Z,16.70
2018-01-29T09:52:35.824Z,16.70
2018-01-29T09:55:03.664Z,16.70
2018-01-29T09:57:30.796Z,16.70
2018-01-29T09:59:57.930Z,16.80
2018-01-29T10:02:26.797Z,16.80
2018-01-29T10:04:54.828Z,16.80
2018-01-29T10:07:22.224Z,16.80
2018-01-29T10:09:49.352Z,16.70
2018-01-29T10:12:16.525Z,16.70
2018-01-29T10:14:43.660Z,16.70
2018-01-29T10:17:12.472Z,16.70
2018-01-29T10:19:39.745Z,16.70
2018-01-29T10:22:07.260Z,16.70
2018-01-29T10:24:35.313Z,16.80
2018-01-29T10:27:02.493Z,16.80
2018-01-29T10:29:29.663Z,16.80
2018-01-29T10:31:56.868Z,16.80
2018-01-29T10:34:24.957Z,16.70
2018-01-29T10:36:52.854Z,16.70
2018-01-29T10:39:20.801Z,16.70
2018-01-29T10:41:48.732Z,16.80
2018-01-29T10:44:16.717Z,16.90
2018-01-29T10:46:43.850Z,17.00
2018-01-29T10:49:10.979Z,17.10
2018-01-29T10:51:38.885Z,17.10
2018-01-29T10:54:07.575Z,17.10
2018-01-29T10:56:34.711Z,17.10
2018-01-29T10:59:02.644Z,17.10
2018-01-29T11:01:30.605Z,17.00
2018-01-29T11:03:57.732Z,17.00
2018-01-29T11:06:24.940Z,17.00
2018-01-29T11:08:53.012Z,17.00
2018-01-29T11:11:28.628Z,17.00
2018-01-29T11:14:16.156Z,17.00
2018-01-29T11:16:58.800Z,17.00
2018-01-29T11:22:15.888Z,16.90
2018-01-29T11:24:45.196Z,16.90
2018-01-29T11:27:12.601Z,16.90
2018-01-29T11:29:39.733Z,16.80
2018-01-29T11:32:07.642Z,16.80
2018-01-29T11:34:34.772Z,16.80
2018-01-29T11:37:01.987Z,16.80
2018-01-29T11:39:29.949Z,16.80
2018-01-29T11:41:57.082Z,16.80
2018-01-29T11:44:24.213Z,16.80
2018-01-29T11:46:51.895Z,16.80
2018-01-29T11:49:19.109Z,16.80
2018-01-29T11:51:46.825Z,16.80
2018-01-29T11:54:14.573Z,16.90
2018-01-29T11:56:42.104Z,17.00
2018-01-29T11:59:11.976Z,17.10
2018-01-29T12:01:39.328Z,17.20
2018-01-29T12:04:07.214Z,17.20
2018-01-29T12:06:35.053Z,17.20
2018-01-29T12:09:03.101Z,17.20
2018-01-29T12:11:30.844Z,17.10
2018-01-29T12:14:00.147Z,17.10
2018-01-29T12:16:28.146Z,17.10
2018-01-29T12:18:56.698Z,17.10
2018-01-29T12:21:24.010Z,17.00
2018-01-29T12:23:52.353Z,17.00
2018-01-29T12:26:19.894Z,16.90
2018-01-29T12:28:48.160Z,17.00
2018-01-29T12:31:16.074Z,17.00
2018-01-29T12:33:44.817Z,16.90
2018-01-29T12:36:13.959Z,16.90
2018-01-29T12:38:43.372Z,16.90
2018-01-29T12:41:10.910Z,16.90
2018-01-29T12:43:38.594Z,16.90
2018-01-29T12:46:06.955Z,17.00
2018-01-29T12:48:35.605Z,16.90
2018-01-29T12:51:05.828Z,16.90
2018-01-29T12:53:35.893Z,16.90
2018-01-29T12:56:06.470Z,16.90
2018-01-29T12:58:34.581Z,16.90
2018-01-29T13:01:04.377Z,16.90
2018-01-29T13:03:32.603Z,16.90
2018-01-29T13:06:00.637Z,16.90
2018-01-29T13:08:27.800Z,16.90
2018-01-29T13:10:54.938Z,16.90
2018-01-29T13:13:22.897Z,16.90
2018-01-29T13:15:51.021Z,17.00
2018-01-29T13:18:18.212Z,17.10
2018-01-29T13:20:46.106Z,17.30
2018-01-29T13:23:14.174Z,17.30
2018-01-29T13:25:42.225Z,17.10
2018-01-29T13:28:10.925Z,16.80
2018-01-29T13:30:38.074Z,16.80
2018-01-29T13:33:05.213Z,16.80
2018-01-29T13:35:33.154Z,17.00
2018-01-29T13:38:01.098Z,17.00
2018-01-29T13:40:29.138Z,17.10
2018-01-29T13:42:56.268Z,17.10
2018-01-29T13:45:25.113Z,17.20
2018-01-29T13:47:52.242Z,17.20
2018-01-29T13:50:19.419Z,17.20
2018-01-29T13:52:46.767Z,17.10
2018-01-29T13:55:14.034Z,17.10
2018-01-29T13:57:41.169Z,17.10
2018-01-29T14:00:09.244Z,17.10
2018-01-29T14:02:37.184Z,17.00
2018-01-29T14:05:05.222Z,17.10
2018-01-29T14:07:33.889Z,17.00
2018-01-29T14:10:01.806Z,17.00
2018-01-29T14:12:28.977Z,17.00
2018-01-29T14:14:56.108Z,17.00
2018-01-29T14:17:24.197Z,17.00
2018-01-29T14:19:51.325Z,17.00
2018-01-29T14:22:18.461Z,16.90
2018-01-29T14:24:46.369Z,17.00
2018-01-29T14:27:13.526Z,17.00
2018-01-29T14:29:41.301Z,17.00
2018-01-29T14:32:09.378Z,17.00
2018-01-29T14:34:36.541Z,17.00
2018-01-29T14:37:04.464Z,17.00
2018-01-29T14:39:31.596Z,16.90
2018-01-29T14:41:59.499Z,16.90
2018-01-29T14:44:26.668Z,16.90
2018-01-29T14:46:53.797Z,16.90
2018-01-29T14:49:20.965Z,16.90
2018-01-29T14:51:49.028Z,16.80
2018-01-29T14:54:16.159Z,16.90
2018-01-29T14:56:44.220Z,16.90
2018-01-29T14:59:11.353Z,16.90
2018-01-29T15:01:39.286Z,16.80
2018-01-29T15:04:07.336Z,16.80
2018-01-29T15:06:35.248Z,16.80
2018-01-29T15:09:03.292Z,16.80
2018-01-29T15:11:31.962Z,16.80
2018-01-29T15:13:59.948Z,16.80
2018-01-29T15:16:27.077Z,16.90
2018-01-29T15:18:54.988Z,16.80
2018-01-29T15:21:22.121Z,16.90
2018-01-29T15:23:50.193Z,17.00
2018-01-29T15:26:18.132Z,17.00
2018-01-29T15:28:45.264Z,17.10
2018-01-29T15:31:13.969Z,17.20
2018-01-29T15:33:41.105Z,17.20
2018-01-29T15:36:09.873Z,17.20
2018-01-29T15:38:37.814Z,17.10
2018-01-29T15:41:04.948Z,17.10
2018-01-29T15:43:32.881Z,17.20
2018-01-29T15:46:01.596Z,17.10
2018-01-29T15:48:29.755Z,17.10
2018-01-29T15:50:56.888Z,17.10
2018-01-29T15:53:24.825Z,17.10
2018-01-29T15:55:51.962Z,17.10
2018-01-29T15:58:19.100Z,17.00
2018-01-29T16:00:46.243Z,17.00
2018-01-29T16:03:13.372Z,17.00
2018-01-29T16:05:41.301Z,17.00
2018-01-29T16:08:08.438Z,17.00
2018-01-29T16:10:36.334Z,16.90
2018-01-29T16:13:03.478Z,16.90
2018-01-29T16:15:30.613Z,17.00
2018-01-29T16:17:58.550Z,16.90
2018-01-29T16:20:25.695Z,16.80
2018-01-29T16:22:52.832Z,16.80
2018-01-29T16:25:20.733Z,16.70
2018-01-29T16:27:48.836Z,16.80
2018-01-29T16:30:16.805Z,16.80
2018-01-29T16:32:44.760Z,16.80
2018-01-29T16:35:12.784Z,16.80
2018-01-29T16:37:41.484Z,16.90
2018-01-29T16:40:10.365Z,17.00
2018-01-29T16:42:40.241Z,17.00
2018-01-29T16:45:07.485Z,17.00
2018-01-29T16:47:35.565Z,17.00
2018-01-29T16:50:02.700Z,17.00
2018-01-29T16:52:30.601Z,16.90
2018-01-29T16:54:58.552Z,16.90
2018-01-29T16:57:26.456Z,16.90
2018-01-29T16:59:54.356Z,16.90
2018-01-29T17:02:22.385Z,16.90
2018-01-29T17:04:50.309Z,16.90
2018-01-29T17:07:17.507Z,16.90
2018-01-29T17:09:45.568Z,16.90
2018-01-29T17:12:13.506Z,16.90
2018-01-29T17:14:40.659Z,16.80
2018-01-29T17:17:07.789Z,16.80
2018-01-29T17:19:35.058Z,16.80
2018-01-29T17:22:03.098Z,16.90
2018-01-29T17:24:31.880Z,16.90
2018-01-29T17:26:59.830Z,17.00
2018-01-29T17:29:27.744Z,17.00
2018-01-29T17:31:54.889Z,17.10
2018-01-29T17:34:22.820Z,17.20
2018-01-29T17:36:50.860Z,17.20
2018-01-29T17:39:18.808Z,17.20
2018-01-29T17:41:45.945Z,17.20
2018-01-29T17:44:13.843Z,17.20
2018-01-29T17:46:40.977Z,17.20
2018-01-29T17:49:08.108Z,17.10
2018-01-29T17:51:36.812Z,17.10
2018-01-29T17:54:04.876Z,17.10
2018-01-29T17:56:32.053Z,17.10
2018-01-29T17:58:59.234Z,17.10
2018-01-29T18:01:26.368Z,17.10
2018-01-29T18:03:53.536Z,17.10
2018-01-29T18:06:21.493Z,17.10
2018-01-29T18:08:48.624Z,17.10
2018-01-29T18:11:15.757Z,17.00
2018-01-29T18:13:43.701Z,17.00
2018-01-29T18:16:11.598Z,17.00
2018-01-29T18:18:39.521Z,16.90
2018-01-29T18:21:06.652Z,16.90
2018-01-29T18:23:33.781Z,17.00
2018-01-29T18:26:00.912Z,17.00
2018-01-29T18:28:28.081Z,17.00
2018-01-29T18:30:55.969Z,17.00
2018-01-29T18:33:23.164Z,17.00
2018-01-29T18:35:51.056Z,16.90
2018-01-29T18:38:19.082Z,16.90
2018-01-29T18:40:46.265Z,16.90
2018-01-29T18:43:15.061Z,17.00
2018-01-29T18:45:43.128Z,17.00
2018-01-29T18:48:11.160Z,17.00
2018-01-29T18:50:38.296Z,16.90
2018-01-29T18:53:05.430Z,16.90
2018-01-29T18:55:32.564Z,16.90
2018-01-29T18:58:00.600Z,16.90
2018-01-29T19:00:28.502Z,16.90
2018-01-29T19:02:55.649Z,16.90
2018-01-29T19:05:22.896Z,17.00
2018-01-29T19:07:50.817Z,16.90
2018-01-29T19:10:18.992Z,16.90
2018-01-29T19:12:47.000Z,16.80
2018-01-29T19:15:14.912Z,16.90
2018-01-29T19:17:42.067Z,16.90
2018-01-29T19:20:09.198Z,17.00
2018-01-29T19:22:37.118Z,17.10
2018-01-29T19:25:04.247Z,17.20
2018-01-29T19:27:31.381Z,17.20
2018-01-29T19:29:58.633Z,17.20
2018-01-29T19:32:25.768Z,17.20
2018-01-29T19:34:52.948Z,17.10
2018-01-29T19:37:20.084Z,17.10
2018-01-29T19:39:47.222Z,17.20
2018-01-29T19:42:14.358Z,17.10
2018-01-29T19:44:41.492Z,17.10
2018-01-29T19:47:09.392Z,17.00
2018-01-29T19:49:36.524Z,17.00
2018-01-29T19:52:04.460Z,17.00
2018-01-29T19:54:31.588Z,17.00
2018-01-29T19:56:58.722Z,17.00
2018-01-29T19:59:25.855Z,16.90
2018-01-29T20:01:53.003Z,16.90
2018-01-29T20:04:20.140Z,16.90
2018-01-29T20:06:48.044Z,16.90
2018-01-29T20:09:15.731Z,16.90
2018-01-29T20:11:42.865Z,16.90
2018-01-29T20:14:09.995Z,16.90
2018-01-29T20:16:37.125Z,16.90
2018-01-29T20:19:05.024Z,16.90
2018-01-29T20:21:32.930Z,16.90
2018-01-29T20:24:00.060Z,16.90
2018-01-29T20:26:27.196Z,16.90
2018-01-29T20:28:54.328Z,16.90
2018-01-29T20:31:21.464Z,16.90
2018-01-29T20:33:49.363Z,16.90
2018-01-29T20:36:16.500Z,16.90
2018-01-29T20:38:43.624Z,16.90
2018-01-29T20:41:11.529Z,17.00
2018-01-29T20:43:38.711Z,16.90
2018-01-29T20:46:05.856Z,16.90
2018-01-29T20:48:32.989Z,16.90
2018-01-29T20:51:00.147Z,17.00
2018-01-29T20:53:27.340Z,16.90
2018-01-29T20:55:54.548Z,16.90
2018-01-29T20:58:21.804Z,17.00
2018-01-29T21:00:48.933Z,17.10
2018-01-29T21:03:16.097Z,17.20
2018-01-29T21:05:43.229Z,17.30
2018-01-29T21:08:10.356Z,17.30
2018-01-29T21:10:38.257Z,17.30
2018-01-29T21:13:05.441Z,17.30
2018-01-29T21:15:32.573Z,17.30
2018-01-29T21:17:59.704Z,17.20
2018-01-29T21:20:26.841Z,17.20
2018-01-29T21:22:54.735Z,17.10
2018-01-29T21:25:21.872Z,17.10
2018-01-29T21:27:49.005Z,17.20
2018-01-29T21:30:16.903Z,17.10
2018-01-29T21:32:44.061Z,17.10
2018-01-29T21:35:11.224Z,17.10
2018-01-29T21:37:38.389Z,17.10
2018-01-29T21:40:05.516Z,17.10
2018-01-29T21:42:32.760Z,17.10
2018-01-29T21:45:03.856Z,17.00
2018-01-29T21:47:32.136Z,17.00
2018-01-29T21:50:00.041Z,16.90
2018-01-29T21:52:28.382Z,16.90
2018-01-29T21:55:01.890Z,17.00
2018-01-29T21:57:29.806Z,17.00
2018-01-29T21:59:57.549Z,17.00
2018-01-29T22:02:26.049Z,17.00
2018-01-29T22:04:54.264Z,17.00
2018-01-29T22:07:21.496Z,17.00
2018-01-29T22:09:48.663Z,17.00
2018-01-29T22:12:15.801Z,17.00
2018-01-29T22:14:43.040Z,16.90
2018-01-29T22:17:10.185Z,16.90
2018-01-29T22:19:40.849Z,16.90
2018-01-29T22:22:08.815Z,16.90
2018-01-29T22:24:37.577Z,16.90
2018-01-29T22:27:05.058Z,16.90
2018-01-29T22:29:33.540Z,16.90
2018-01-29T22:32:03.671Z,16.90
2018-01-29T22:34:31.273Z,16.90
2018-01-29T22:36:58.404Z,16.90
2018-01-29T22:39:30.085Z,16.90
2018-01-29T22:41:59.706Z,17.00
2018-01-29T22:44:27.128Z,17.00
2018-01-29T22:46:58.301Z,16.90
2018-01-29T22:49:25.572Z,16.90
2018-01-29T22:51:54.523Z,16.90
2018-01-29T22:54:24.753Z,16.80
2018-01-29T22:56:55.562Z,16.90
2018-01-29T22:59:24.674Z,16.90
2018-01-29T23:01:52.588Z,16.80
2018-01-29T23:04:19.712Z,16.80
2018-01-29T23:06:46.845Z,16.80
2018-01-29T23:09:14.741Z,16.90
2018-01-29T23:11:41.876Z,16.90
2018-01-29T23:14:09.771Z,17.10
2018-01-29T23:16:37.716Z,17.10
2018-01-29T23:19:04.849Z,17.20
2018-01-29T23:21:32.746Z,17.20
2018-01-29T23:23:59.880Z,17.20
2018-01-29T23:26:28.724Z,17.10
2018-01-29T23:28:55.852Z,17.20
2018-01-29T23:31:22.987Z,17.10
2018-01-29T23:33:50.148Z,17.10
2018-01-29T23:36:18.061Z,17.00
2018-01-29T23:38:45.221Z,17.00
2018-01-29T23:41:12.348Z,17.00
2018-01-29T23:43:39.476Z,17.00
2018-01-29T23:46:06.603Z,17.00
2018-01-29T23:48:33.728Z,17.00
2018-01-29T23:51:01.629Z,16.90
2018-01-29T23:53:28.814Z,16.90
2018-01-29T23:55:55.944Z,16.90
2018-01-29T23:58:23.072Z,16.80
